Al Mirqab — ZCTS4 — position and weather

sailwx.info

Track history (hours):
 
Tides and Currents Weather Stations Pressure Air Temp Water Temp Dewpoint Dewpoint Depression Visibility Wind Speed Wind Dir Waves Ship Positions

Al Mirqab

Last reported at 2015-Aug-23 14:17 UTC. Time now 2015-Sep-01 03:56 UTC.
Position N 40°55' E 028°51'.
Warning: this ship's position is 8 days out of date.

Length 133 m; draft 5 m.

Type: Pleasure craft. MMSI: 319361000.

Date/timePositionNaut miles runAvg speedWind from/ knotsBaromVisibWave heightAir tempDewpointWater temp
2015-Aug-23 14:17N 40°55' E 028°51'4 0.1
2015-Aug-22 09:24N 40°58' E 028°53'7 7.6
2015-Aug-22 08:31N 40°52' E 028°53'  
2015-Aug-18 17:05N 37°50' E 015°17'0 0.0
2015-Aug-18 15:24N 37°50' E 015°17'0 0.0
2015-Aug-18 11:12N 37°50' E 015°17'4 6.1
2015-Aug-18 10:32N 37°53' E 015°21'1212.4
2015-Aug-18 09:33N 38°03' E 015°29'1111.5
2015-Aug-18 08:33N 38°13' E 015°36'1010.2
2015-Aug-18 07:33N 38°24' E 015°36'1312.5
2015-Aug-18 06:33N 38°35' E 015°29'1312.8
2015-Aug-18 05:32N 38°46' E 015°22'117 6.8
2015-Aug-17 12:15N 40°34' E 014°21'4 5.6
2015-Aug-17 11:33N 40°36' E 014°16'14 1.0
2015-Aug-16 22:30N 40°50' E 014°14'1212.7
2015-Aug-16 21:34N 40°38' E 014°16'  
2015-Aug-14 11:04N 40°34' E 014°21'915.4
2015-Aug-14 10:30N 40°30' E 014°11'1617.3
2015-Aug-14 09:34N 40°33' E 013°50'1917.5
2015-Aug-14 08:29N 40°35' E 013°25'1617.6
2015-Aug-14 07:33N 40°38' E 013°04'1817.8
2015-Aug-14 06:33N 40°41' E 012°41'1817.5
2015-Aug-14 05:33N 40°44' E 012°18'1817.3
2015-Aug-14 04:32N 40°46' E 011°55'1717.2
2015-Aug-14 03:33N 40°49' E 011°33'1716.9
2015-Aug-14 02:33N 40°52' E 011°11'3817.9
2015-Aug-14 00:25N 40°58' E 010°21'  
Track history (hours):
 
Tides and Currents Weather Stations Pressure Air Temp Water Temp Dewpoint Dewpoint Depression Visibility Wind Speed Wind Dir Waves Ship Positions

Al Mirqab

Last reported at 2015-Aug-23 14:17 UTC. Time now 2015-Sep-01 03:56 UTC.
Position N 40°55' E 028°51'.
Warning: this ship's position is 8 days out of date.

Length 133 m; draft 5 m.

Type: Pleasure craft. MMSI: 319361000.

Date/timePositionNaut miles runAvg speedWind from/ knotsBaromVisibWave heightAir tempDewpointWater temp
2015-Aug-23 14:17N 40°55' E 028°51'4 0.1
2015-Aug-22 09:24N 40°58' E 028°53'7 7.6
2015-Aug-22 08:31N 40°52' E 028°53'  
2015-Aug-18 17:05N 37°50' E 015°17'0 0.0
2015-Aug-18 15:24N 37°50' E 015°17'0 0.0
2015-Aug-18 11:12N 37°50' E 015°17'4 6.1
2015-Aug-18 10:32N 37°53' E 015°21'1212.4
2015-Aug-18 09:33N 38°03' E 015°29'1111.5
2015-Aug-18 08:33N 38°13' E 015°36'1010.2
2015-Aug-18 07:33N 38°24' E 015°36'1312.5
2015-Aug-18 06:33N 38°35' E 015°29'1312.8
2015-Aug-18 05:32N 38°46' E 015°22'117 6.8
2015-Aug-17 12:15N 40°34' E 014°21'4 5.6
2015-Aug-17 11:33N 40°36' E 014°16'14 1.0
2015-Aug-16 22:30N 40°50' E 014°14'1212.7
2015-Aug-16 21:34N 40°38' E 014°16'  
2015-Aug-14 11:04N 40°34' E 014°21'915.4
2015-Aug-14 10:30N 40°30' E 014°11'1617.3
2015-Aug-14 09:34N 40°33' E 013°50'1917.5
2015-Aug-14 08:29N 40°35' E 013°25'1617.6
2015-Aug-14 07:33N 40°38' E 013°04'1817.8
2015-Aug-14 06:33N 40°41' E 012°41'1817.5
2015-Aug-14 05:33N 40°44' E 012°18'1817.3
2015-Aug-14 04:32N 40°46' E 011°55'1717.2
2015-Aug-14 03:33N 40°49' E 011°33'1716.9
2015-Aug-14 02:33N 40°52' E 011°11'3817.9
2015-Aug-14 00:25N 40°58' E 010°21'  

Dump ship's entire track history